El Bayadh Airport


Codes: DAOY/EBH
Name: El Bayadh Airport
City: El Bayadh
Country: Algeria
Elevation: 4493 ft.

Photos at El Bayadh Airport


   Photos courtesy of SpottingLog. You can add your own sightings and photos by signing up for a free trial today.



No photos found.

Weather at El Bayadh Airport


Time (UTC)DescriptionTempratureWindCloud coverageVisibilityPressureHumidity
21-Feb-2024 03:00Scattered Clouds5°C7 mph, N38%10000m1027hPa83%
21-Feb-2024 06:00Scattered Clouds4°C7 mph, N43%10000m1028hPa86%
21-Feb-2024 09:00Clear Sky7°C11 mph, N5%10000m1028hPa59%
21-Feb-2024 12:00Clear Sky11°C16 mph, N3%10000m1027hPa34%
21-Feb-2024 15:00Clear Sky13°C18 mph, N6%10000m1024hPa28%
21-Feb-2024 18:00Clear Sky10°C9 mph, N8%10000m1025hPa36%
21-Feb-2024 21:00Scattered Clouds8°C7 mph, N46%10000m1026hPa44%
22-Feb-2024 00:00Broken Clouds7°C2 mph, NW72%10000m1025hPa50%
22-Feb-2024 03:00Overcast Clouds7°C2 mph, W100%10000m1023hPa51%
22-Feb-2024 06:00Broken Clouds5°C4 mph, W81%10000m1023hPa53%
22-Feb-2024 09:00Broken Clouds10°C4 mph, W84%10000m1023hPa39%
22-Feb-2024 12:00Broken Clouds14°C11 mph, W80%10000m1022hPa23%
22-Feb-2024 15:00Broken Clouds15°C13 mph, NW77%10000m1019hPa21%
22-Feb-2024 18:00Scattered Clouds12°C7 mph, NW44%10000m1019hPa29%
22-Feb-2024 21:00Clear Sky11°C7 mph, W9%10000m1019hPa32%
23-Feb-2024 00:00Scattered Clouds10°C7 mph, SW48%10000m1018hPa38%
23-Feb-2024 03:00Overcast Clouds9°C9 mph, SW88%10000m1016hPa44%
23-Feb-2024 06:00Broken Clouds8°C13 mph, W75%10000m1016hPa56%
23-Feb-2024 09:00Overcast Clouds9°C22 mph, NW100%10000m1017hPa54%
23-Feb-2024 12:00Overcast Clouds12°C22 mph, NW100%10000m1015hPa44%
23-Feb-2024 15:00Overcast Clouds14°C20 mph, NW98%10000m1014hPa40%
23-Feb-2024 18:00Broken Clouds9°C18 mph, N76%10000m1016hPa67%
23-Feb-2024 21:00Broken Clouds7°C13 mph, NW83%10000m1018hPa78%
24-Feb-2024 00:00Broken Clouds4°C18 mph, NW62%10000m1019hPa82%
24-Feb-2024 03:00Broken Clouds4°C25 mph, NW76%10000m1018hPa64%
24-Feb-2024 06:00Overcast Clouds3°C20 mph, NW88%10000m1017hPa77%
24-Feb-2024 09:00Overcast Clouds4°C27 mph, NW100%10000m1018hPa74%
24-Feb-2024 12:00Light Rain6°C27 mph, NW99%10000m1017hPa59%
24-Feb-2024 15:00Light Rain5°C31 mph, NW100%10000m1017hPa73%
24-Feb-2024 18:00Light Rain2°C27 mph, NW99%1351m1019hPa95%
24-Feb-2024 21:00Light Snow3°C29 mph, NW97%9588m1021hPa80%
25-Feb-2024 00:00Light Snow3°C34 mph, NW96%10000m1021hPa78%
25-Feb-2024 03:00Overcast Clouds2°C25 mph, NW100%10000m1021hPa81%
25-Feb-2024 06:00Overcast Clouds3°C22 mph, NW100%10000m1022hPa81%
25-Feb-2024 09:00Overcast Clouds4°C22 mph, NW97%10000m1024hPa76%
25-Feb-2024 12:00Overcast Clouds8°C18 mph, NW97%10000m1022hPa54%
25-Feb-2024 15:00Broken Clouds10°C13 mph, NW76%10000m1019hPa46%
25-Feb-2024 18:00Broken Clouds9°C7 mph, W54%10000m1019hPa49%
25-Feb-2024 21:00Clear Sky8°C9 mph, SW2%10000m1019hPa46%
26-Feb-2024 00:00Clear Sky7°C13 mph, S1%10000m1017hPa50%